Murdock, NE (68407)

8:46 PM CST on November 28, 2014 (GMT -0600)
274th & Fletcher Ave | Change Station
CLOSE
Current Station
Personal Weather Station
Location: Elmwood, NE
Elevation: 1290 ft
Nearby Weather Stations

Elev 1290 ft 40.87 °N, 96.33 °W | Updated 28 seconds ago

Clear
Clear
50.0 °F
Feels Like 45 °F
N
13.0
Wind Variable Wind from South
Gusts 24.0 mph

Today
High -- | Low -- °F
--% Chance of Precip.
Yesterday
High -- | Low -- °F
Precip. -- in
7:27 AM 4:58 PM
Waxing Crescent, 46% visible
Pressure 29.63 in
Visibility 10.0 miles
Clouds Clear
Windchill 45 °F
Dew Point 36 °F
Humidity 59%
Rainfall 0.00 in
Snow Depth Not available.
UV 0 out of 12
Pollen .10 out of 12
Air Quality Not available.
Flu Activity Not available.
METAR KPMV 290235Z AUTO 14006KT 10SM CLR 07/M01 A2963 RMK AO2 T00681010

More Conditions Fewer Conditions

Pressure 29.63 in
Visibility 10.0 miles
Clouds Clear
Windchill 45 °F
Dew Point 36 °F
Humidity 59%
Rainfall 0.00 in
Snow Depth Not available.
UV 0 out of 12
Pollen .10 out of 12
Air Quality Not available.
Flu Activity Not available.
METAR KPMV 290235Z AUTO 14006KT 10SM CLR 07/M01 A2963 RMK AO2 T00681010

More Conditions Fewer Conditions

10-Day Weather Forecast

Almanac

Astronomy

Nov. 28, 2014 Rise Set
Actual Time
Civil Twilight
Nautical Twilight
Astronomical Twilight
Moon
Length of Visible Light
Length of Day
Tomorrow will be .
, % of the Moon is Illuminated

Today's Extremes

State Highs State Lows

Community

WunderPhotos

Upload Photos

1,774,377 photos uploaded!

WunderBlogs® & News

Nearby

Air Quality

  Air Quality AQ Index Pollutant
Not available.

Snow Depth

Station Depth Elevation

Earthquake Activity

City Distance Mag. Time & Date
Minimum magnitude displayed is 2.5.

Coastal Water Temperatures

Place Temperature

Nearby Weather Stations